Time;durP1;ratioP1;P1;durP2;ratioP2;P2;SDS_P1;SDS_P2;PMS_P1;PMS_P2;Temp;Humidity;BMP_temperature;BMP_pressure;BME280_temperature;BME280_humidity;BME280_pressure;Samples;Min_cycle;Max_cycle;Signal;HPM_P1;HPM_P2
2022/12/26 00:01:25;;;;;;;24.77;15.48;;;9.30;99.90;;;;;;4808439;29;20034;-61
2022/12/26 00:03:51;;;;;;;17.80;13.40;;;9.20;99.90;;;;;;4815747;29;20388;-61
2022/12/26 00:06:20;;;;;;;19.08;13.27;;;9.30;99.90;;;;;;4813176;29;20043;-62
2022/12/26 00:08:47;;;;;;;18.95;12.63;;;9.30;99.90;;;;;;4800204;29;20118;-62
2022/12/26 00:11:13;;;;;;;21.27;14.15;;;9.30;99.90;;;;;;4816849;29;20043;-60
2022/12/26 00:13:40;;;;;;;23.33;14.30;;;9.30;99.90;;;;;;4816220;29;20130;-61
2022/12/26 00:16:08;;;;;;;19.92;13.95;;;9.20;99.90;;;;;;4814433;29;20054;-60
2022/12/26 00:18:34;;;;;;;23.48;15.10;;;9.30;99.90;;;;;;4815498;29;20103;-61
2022/12/26 00:20:59;;;;;;;28.27;16.40;;;9.10;99.90;;;;;;4816772;29;20050;-60
2022/12/26 00:23:25;;;;;;;26.58;15.43;;;9.30;99.90;;;;;;4815256;29;20115;-59
2022/12/26 00:25:50;;;;;;;22.17;15.10;;;9.20;99.90;;;;;;4814547;29;20055;-61
2022/12/26 00:28:16;;;;;;;22.15;14.57;;;9.20;99.90;;;;;;4815139;29;20046;-60
2022/12/26 00:30:41;;;;;;;26.33;14.68;;;9.20;99.90;;;;;;4815609;29;20049;-62
2022/12/26 00:33:07;;;;;;;25.63;14.38;;;9.20;99.90;;;;;;4799301;29;20373;-61
2022/12/26 00:35:32;;;;;;;33.15;15.80;;;9.20;99.90;;;;;;4813335;29;20082;-59
2022/12/26 00:37:58;;;;;;;29.85;15.75;;;9.30;99.90;;;;;;4815218;29;20432;-62
2022/12/26 00:40:24;;;;;;;32.65;16.52;;;9.20;99.90;;;;;;4814281;29;20039;-61
2022/12/26 00:42:49;;;;;;;27.83;15.88;;;9.20;99.90;;;;;;4814620;29;20141;-60
2022/12/26 00:45:15;;;;;;;29.40;16.45;;;9.20;99.90;;;;;;4797238;29;20046;-60
2022/12/26 00:47:40;;;;;;;32.78;18.25;;;9.10;99.90;;;;;;4814541;29;20046;-62
2022/12/26 00:50:06;;;;;;;55.58;19.80;;;9.20;99.90;;;;;;4814984;29;20053;-60
2022/12/26 00:52:32;;;;;;;40.88;19.17;;;9.20;99.90;;;;;;4815202;29;20425;-61
2022/12/26 00:54:58;;;;;;;43.63;19.00;;;9.10;99.90;;;;;;4812666;29;20050;-59
2022/12/26 00:57:23;;;;;;;38.97;18.02;;;9.20;99.90;;;;;;4815423;29;20042;-60
2022/12/26 00:59:49;;;;;;;42.33;19.45;;;9.00;99.90;;;;;;4817100;29;20376;-59
2022/12/26 01:04:58;;;;;;;29.58;18.73;;;9.00;99.90;;;;;;4811466;29;20120;-60
2022/12/26 01:07:24;;;;;;;32.67;19.02;;;9.00;99.90;;;;;;4813657;29;20039;-61
2022/12/26 01:09:50;;;;;;;25.77;17.55;;;9.20;99.90;;;;;;4815826;29;20053;-60
2022/12/26 01:12:15;;;;;;;29.77;18.65;;;9.20;99.90;;;;;;4812115;29;20046;-60
2022/12/26 01:14:41;;;;;;;33.53;20.90;;;9.20;99.90;;;;;;4813485;29;20062;-61
2022/12/26 01:17:06;;;;;;;24.77;17.70;;;9.20;99.90;;;;;;4813518;29;20329;-60
2022/12/26 01:19:32;;;;;;;26.88;18.15;;;9.30;99.90;;;;;;4813541;29;20120;-61
2022/12/26 01:21:58;;;;;;;24.98;17.55;;;9.20;99.90;;;;;;4813871;29;20342;-59
2022/12/26 01:24:24;;;;;;;27.48;18.33;;;9.30;99.90;;;;;;4813174;29;20138;-62
2022/12/26 01:26:49;;;;;;;21.85;16.40;;;9.30;99.90;;;;;;4813514;29;20137;-61
2022/12/26 01:29:16;;;;;;;22.33;16.42;;;9.20;99.90;;;;;;4794524;29;20054;-59
2022/12/26 01:31:42;;;;;;;22.67;16.92;;;9.20;99.90;;;;;;4796577;29;20543;-60
2022/12/26 01:34:09;;;;;;;23.30;16.50;;;9.30;99.90;;;;;;4814895;29;20125;-60
2022/12/26 01:36:34;;;;;;;21.08;16.35;;;9.30;99.90;;;;;;4813035;29;20103;-61
2022/12/26 01:39:00;;;;;;;21.73;16.63;;;9.30;99.90;;;;;;4813354;29;20501;-60
2022/12/26 01:41:26;;;;;;;20.13;16.25;;;9.30;99.90;;;;;;4781845;29;20049;-59
2022/12/26 01:43:57;;;;;;;20.35;15.98;;;9.20;99.90;;;;;;4813054;29;20043;-61
2022/12/26 01:46:28;;;;;;;25.92;17.77;;;9.20;99.90;;;;;;4812436;29;20038;-61
2022/12/26 01:49:05;;;;;;;19.90;15.75;;;9.20;99.90;;;;;;4792964;29;20142;-60
2022/12/26 01:51:35;;;;;;;23.92;18.08;;;9.20;99.90;;;;;;4779329;29;20357;-61
2022/12/26 01:54:04;;;;;;;20.67;15.82;;;9.30;99.90;;;;;;4814647;29;20380;-61
2022/12/26 01:56:36;;;;;;;22.83;16.63;;;9.20;99.90;;;;;;4814049;29;20381;-61
2022/12/26 01:59:08;;;;;;;24.55;18.05;;;9.20;99.90;;;;;;4811492;29;20039;-60
2022/12/26 02:01:37;;;;;;;26.67;18.52;;;9.30;99.90;;;;;;4813323;29;20095;-61
2022/12/26 02:06:51;;;;;;;26.00;19.67;;;9.30;99.90;;;;;;4813904;29;20126;-59
2022/12/26 02:09:18;;;;;;;25.85;18.58;;;9.30;99.90;;;;;;4812791;29;20521;-62
2022/12/26 02:11:49;;;;;;;24.65;18.65;;;9.30;99.90;;;;;;4812889;29;20061;-61
2022/12/26 02:14:14;;;;;;;24.33;18.58;;;9.20;99.90;;;;;;4811408;29;20034;-59
2022/12/26 02:16:42;;;;;;;27.70;20.35;;;9.30;99.90;;;;;;4814206;29;20053;-60
2022/12/26 02:19:20;;;;;;;27.13;19.95;;;9.50;99.90;;;;;;4815698;29;20122;-59
2022/12/26 02:22:12;;;;;;;28.45;21.15;;;9.30;99.90;;;;;;4811865;29;20046;-61
2022/12/26 02:25:02;;;;;;;25.95;20.27;;;9.30;99.90;;;;;;4811781;29;20051;-61
2022/12/26 02:27:54;;;;;;;27.38;19.67;;;9.40;99.90;;;;;;4812149;29;20074;-60
2022/12/26 02:30:35;;;;;;;30.95;21.77;;;9.30;99.90;;;;;;4785564;29;20103;-61
2022/12/26 02:33:17;;;;;;;29.00;21.83;;;9.40;99.90;;;;;;4810829;29;20050;-62
2022/12/26 02:35:58;;;;;;;29.42;22.15;;;9.40;99.90;;;;;;4809544;29;20491;-61
2022/12/26 02:38:34;;;;;;;29.55;22.38;;;9.30;99.90;;;;;;4793598;29;20049;-62
2022/12/26 02:41:07;;;;;;;28.50;21.90;;;9.30;99.90;;;;;;4807931;29;20069;-61
2022/12/26 02:43:44;;;;;;;30.48;21.70;;;9.40;99.90;;;;;;4812622;29;20132;-61
2022/12/26 02:49:20;;;;;;;27.92;22.55;;;9.40;99.90;;;;;;4799335;29;20207;-61
2022/12/26 03:15:10;;;;;;;29.40;22.95;;;9.30;99.90;;;;;;4796091;29;20055;-60
2022/12/26 03:17:48;;;;;;;29.02;23.48;;;9.30;99.90;;;;;;4812971;29;20046;-61
2022/12/26 03:20:26;;;;;;;30.15;23.45;;;9.20;99.90;;;;;;4793124;29;20071;-62
2022/12/26 03:23:12;;;;;;;29.05;22.38;;;9.30;99.90;;;;;;4797264;29;20349;-62
2022/12/26 03:28:31;;;;;;;26.48;21.52;;;9.30;99.90;;;;;;4797460;29;20043;-61
2022/12/26 03:31:00;;;;;;;28.52;21.90;;;9.20;99.90;;;;;;4796828;29;20130;-61
2022/12/26 03:36:42;;;;;;;28.48;22.10;;;9.30;99.90;;;;;;4797169;29;20085;-62
2022/12/26 03:39:18;;;;;;;25.73;20.83;;;9.20;99.90;;;;;;4777194;29;20069;-62
2022/12/26 04:21:05;;;;;;;24.10;19.80;;;9.20;99.90;;;;;;4793186;29;20142;-61
2022/12/26 04:46:21;;;;;;;24.13;21.02;;;9.00;99.90;;;;;;4795870;29;20048;-60
2022/12/26 04:51:33;;;;;;;26.10;20.80;;;9.00;99.90;;;;;;4793581;29;20051;-61
2022/12/26 04:53:59;;;;;;;24.15;21.60;;;9.00;99.90;;;;;;4797500;29;20120;-60
2022/12/26 04:56:24;;;;;;;24.38;21.00;;;8.90;99.90;;;;;;4795931;29;20465;-59
2022/12/26 04:58:50;;;;;;;23.48;20.90;;;8.90;99.90;;;;;;4797043;29;20046;-59
2022/12/26 05:09:35;;;;;;;22.83;20.38;;;8.90;99.90;;;;;;4796066;29;20047;-59
2022/12/26 05:12:02;;;;;;;23.20;19.83;;;8.90;99.90;;;;;;4794761;29;20046;-59
2022/12/26 05:14:30;;;;;;;22.67;19.65;;;8.90;99.90;;;;;;4795177;29;20096;-59
2022/12/26 05:30:47;;;;;;;21.30;18.97;;;9.00;99.90;;;;;;4810949;29;20407;-61
2022/12/26 05:35:57;;;;;;;24.15;20.50;;;8.90;99.90;;;;;;4809662;29;20535;-60
2022/12/26 05:38:23;;;;;;;21.75;19.40;;;8.90;99.90;;;;;;4813536;29;20225;-61
2022/12/26 05:40:49;;;;;;;21.67;19.15;;;8.90;99.90;;;;;;4795441;29;20057;-61
2022/12/26 05:43:14;;;;;;;21.65;18.85;;;9.00;99.90;;;;;;4815592;29;20038;-59
2022/12/26 05:45:40;;;;;;;20.92;18.40;;;9.00;99.90;;;;;;4812730;29;20082;-59
2022/12/26 05:48:05;;;;;;;20.75;18.52;;;8.90;99.90;;;;;;4812384;29;20042;-60
2022/12/26 05:50:31;;;;;;;20.15;18.00;;;8.90;99.90;;;;;;4811902;29;20051;-60
2022/12/26 05:52:57;;;;;;;22.00;17.90;;;9.00;99.90;;;;;;4796595;29;20054;-60
2022/12/26 05:55:23;;;;;;;19.65;17.55;;;9.10;99.90;;;;;;4812792;29;20086;-62
2022/12/26 05:57:49;;;;;;;20.25;17.27;;;9.00;99.90;;;;;;4798822;29;20046;-60
2022/12/26 06:00:15;;;;;;;20.52;17.55;;;9.10;99.90;;;;;;4795453;29;20137;-60
2022/12/26 06:02:41;;;;;;;19.77;17.45;;;9.00;99.90;;;;;;4812467;29;20794;-60
2022/12/26 06:05:07;;;;;;;19.67;17.40;;;9.10;99.90;;;;;;4813822;29;20046;-59
2022/12/26 06:07:32;;;;;;;18.98;15.60;;;9.00;99.90;;;;;;4811935;29;20464;-60
2022/12/26 06:09:58;;;;;;;17.67;15.63;;;9.10;99.90;;;;;;4798364;29;20465;-60
2022/12/26 06:12:24;;;;;;;18.25;16.30;;;9.00;99.90;;;;;;4813978;29;20453;-61
2022/12/26 06:14:49;;;;;;;19.70;15.80;;;9.00;99.90;;;;;;4812683;29;20043;-62
2022/12/26 06:17:15;;;;;;;16.95;15.15;;;9.10;99.90;;;;;;4812513;29;20091;-62
2022/12/26 06:19:40;;;;;;;18.15;16.08;;;9.00;99.90;;;;;;4815564;29;20380;-62
2022/12/26 06:22:07;;;;;;;17.50;15.07;;;9.10;99.90;;;;;;4800600;29;20533;-61
2022/12/26 06:24:33;;;;;;;17.58;14.63;;;9.00;99.90;;;;;;4816632;29;20102;-61
2022/12/26 06:26:59;;;;;;;18.30;14.65;;;9.00;99.90;;;;;;4817016;29;20050;-62
2022/12/26 06:29:24;;;;;;;17.42;14.15;;;9.10;99.90;;;;;;4798690;29;20046;-61
2022/12/26 06:31:50;;;;;;;15.95;13.80;;;9.00;99.90;;;;;;4818979;29;20042;-62
2022/12/26 06:34:17;;;;;;;17.17;14.23;;;9.00;99.90;;;;;;4799405;29;20091;-62
2022/12/26 06:36:43;;;;;;;16.17;13.70;;;9.00;99.90;;;;;;4815746;29;20524;-61
2022/12/26 06:39:08;;;;;;;16.65;13.85;;;8.90;99.90;;;;;;4816387;29;20126;-60
2022/12/26 06:41:34;;;;;;;17.13;12.85;;;8.80;99.90;;;;;;4818362;29;20468;-59
2022/12/26 06:44:00;;;;;;;15.20;12.32;;;8.90;99.90;;;;;;4817828;29;20079;-60
2022/12/26 06:46:26;;;;;;;15.13;12.75;;;8.80;99.90;;;;;;4816272;29;20039;-61
2022/12/26 06:48:52;;;;;;;14.90;12.55;;;8.70;99.90;;;;;;4814391;29;20047;-61
2022/12/26 06:51:24;;;;;;;14.73;12.43;;;8.80;99.90;;;;;;4800766;29;20045;-61
2022/12/26 06:53:50;;;;;;;14.23;12.70;;;8.70;99.90;;;;;;4817887;29;20039;-61
2022/12/26 06:56:19;;;;;;;14.48;12.60;;;8.80;99.90;;;;;;4813797;29;20109;-61
2022/12/26 06:58:44;;;;;;;15.50;12.27;;;8.70;99.90;;;;;;4817112;29;20456;-60
2022/12/26 07:01:12;;;;;;;14.85;13.23;;;8.70;99.90;;;;;;4818340;29;20057;-60
2022/12/26 07:03:38;;;;;;;16.85;12.82;;;8.70;99.90;;;;;;4812210;29;20126;-61
2022/12/26 07:06:07;;;;;;;17.27;13.45;;;8.70;99.90;;;;;;4816164;29;20142;-61
2022/12/26 07:08:33;;;;;;;16.75;13.07;;;8.50;99.90;;;;;;4816841;29;20046;-61
2022/12/26 07:10:59;;;;;;;18.60;13.45;;;8.50;99.90;;;;;;4814081;29;20042;-61
2022/12/26 07:13:24;;;;;;;18.33;14.32;;;8.60;99.90;;;;;;4816006;29;20050;-61
2022/12/26 07:15:50;;;;;;;17.52;14.10;;;8.60;99.90;;;;;;4815001;29;20045;-61
2022/12/26 07:18:16;;;;;;;16.80;14.48;;;8.60;99.90;;;;;;4813098;29;20046;-61
2022/12/26 07:20:41;;;;;;;17.17;14.15;;;8.60;99.90;;;;;;4800562;29;20138;-62
2022/12/26 07:23:07;;;;;;;17.17;13.95;;;8.50;99.90;;;;;;4816542;29;20055;-62
2022/12/26 07:25:32;;;;;;;18.38;15.55;;;8.50;99.90;;;;;;4814088;29;20039;-62
2022/12/26 07:27:59;;;;;;;16.73;14.00;;;8.40;99.90;;;;;;4816135;29;20035;-60
2022/12/26 07:30:25;;;;;;;17.13;14.25;;;8.50;99.90;;;;;;4797021;29;20484;-60
2022/12/26 07:32:50;;;;;;;19.20;14.93;;;8.40;99.90;;;;;;4814362;29;20125;-62
2022/12/26 07:35:16;;;;;;;15.77;13.45;;;8.50;99.90;;;;;;4816773;29;20081;-61
2022/12/26 07:37:41;;;;;;;17.38;13.25;;;8.50;99.90;;;;;;4795950;29;20107;-62
2022/12/26 07:40:11;;;;;;;16.17;13.55;;;8.40;99.90;;;;;;4800617;29;20046;-60
2022/12/26 07:42:36;;;;;;;17.80;13.63;;;8.40;99.90;;;;;;4792077;29;20055;-59
2022/12/26 07:45:03;;;;;;;14.95;12.30;;;8.50;99.90;;;;;;4805040;29;20043;-60
2022/12/26 07:47:28;;;;;;;15.55;12.70;;;8.50;99.90;;;;;;4794425;29;20043;-62
2022/12/26 07:49:54;;;;;;;14.80;11.35;;;8.50;99.90;;;;;;4808685;29;20057;-61
2022/12/26 07:52:20;;;;;;;13.50;11.60;;;8.50;99.90;;;;;;4797886;29;20035;-61
2022/12/26 07:54:45;;;;;;;15.52;11.68;;;8.40;99.90;;;;;;4816435;29;20092;-59
2022/12/26 07:57:11;;;;;;;15.02;11.68;;;8.40;99.90;;;;;;4800480;29;20038;-60
2022/12/26 07:59:37;;;;;;;13.35;11.00;;;8.50;99.90;;;;;;4816177;29;20046;-60
2022/12/26 08:02:05;;;;;;;16.67;10.90;;;8.50;99.90;;;;;;4813940;29;20856;-61
2022/12/26 08:04:32;;;;;;;13.43;10.73;;;8.40;99.90;;;;;;4815864;29;20480;-59
2022/12/26 08:06:58;;;;;;;15.63;10.40;;;8.50;99.90;;;;;;4800804;29;20480;-61
2022/12/26 08:09:23;;;;;;;13.57;9.32;;;8.50;99.90;;;;;;4816123;29;20122;-61
2022/12/26 08:11:49;;;;;;;10.95;9.32;;;8.60;99.90;;;;;;4814675;29;20392;-58
2022/12/26 08:14:15;;;;;;;14.38;9.75;;;8.50;99.90;;;;;;4815584;29;20102;-62
2022/12/26 08:16:44;;;;;;;12.10;9.10;;;8.50;99.90;;;;;;4801122;29;20086;-60
2022/12/26 08:19:10;;;;;;;10.50;8.50;;;8.60;99.90;;;;;;4814236;29;20089;-60
2022/12/26 08:21:39;;;;;;;14.02;8.57;;;8.70;99.90;;;;;;4816622;29;20559;-60
2022/12/26 08:24:05;;;;;;;11.55;8.02;;;8.70;99.90;;;;;;4816403;29;20372;-61
2022/12/26 08:26:30;;;;;;;10.40;7.50;;;8.80;99.90;;;;;;4815071;29;20050;-61
2022/12/26 08:28:56;;;;;;;11.90;7.55;;;8.90;99.90;;;;;;4799765;29;20462;-61
2022/12/26 08:31:22;;;;;;;11.10;6.82;;;8.90;99.90;;;;;;4816304;29;20133;-61
2022/12/26 08:33:48;;;;;;;12.05;6.75;;;9.00;99.90;;;;;;4797222;29;20053;-62
2022/12/26 08:36:18;;;;;;;13.05;7.05;;;9.00;99.90;;;;;;4815655;29;20050;-62
2022/12/26 08:38:44;;;;;;;12.35;6.63;;;9.00;99.90;;;;;;4815904;29;20144;-62
2022/12/26 08:41:10;;;;;;;13.88;6.13;;;9.20;99.90;;;;;;4813801;29;20050;-59
2022/12/26 08:43:36;;;;;;;11.27;5.82;;;9.10;99.90;;;;;;4816603;29;20360;-61
2022/12/26 08:46:08;;;;;;;11.00;6.55;;;9.30;99.90;;;;;;4816261;29;20061;-60
2022/12/26 08:48:34;;;;;;;9.63;5.68;;;9.30;99.90;;;;;;4799933;29;20046;-59
2022/12/26 08:51:07;;;;;;;11.10;6.18;;;9.30;99.90;;;;;;4813835;29;20163;-60
2022/12/26 08:53:34;;;;;;;11.20;6.35;;;9.40;99.90;;;;;;4813541;29;20038;-59
2022/12/26 08:56:01;;;;;;;9.75;5.13;;;9.40;99.90;;;;;;4813866;29;20074;-60
2022/12/26 08:58:27;;;;;;;9.40;5.65;;;9.40;99.90;;;;;;4813629;29;20050;-61
2022/12/26 09:00:53;;;;;;;7.80;5.53;;;9.40;99.90;;;;;;4813679;29;20412;-60
2022/12/26 09:03:19;;;;;;;10.73;5.45;;;9.50;99.90;;;;;;4797744;29;20046;-61
2022/12/26 09:05:45;;;;;;;12.20;6.15;;;9.50;99.90;;;;;;4796375;29;20126;-61
2022/12/26 09:08:11;;;;;;;10.32;5.78;;;9.60;99.90;;;;;;4813257;29;20042;-62
2022/12/26 09:10:36;;;;;;;9.73;5.43;;;9.50;99.90;;;;;;4814474;29;20343;-61
2022/12/26 09:13:02;;;;;;;10.52;5.47;;;9.50;99.90;;;;;;4813212;29;20046;-60
2022/12/26 09:15:28;;;;;;;12.23;5.90;;;9.50;99.90;;;;;;4813136;29;20130;-59
2022/12/26 09:17:53;;;;;;;9.52;5.00;;;9.50;99.90;;;;;;4813027;29;20050;-62
2022/12/26 09:20:19;;;;;;;9.10;5.20;;;9.60;99.90;;;;;;4814742;29;20131;-62
2022/12/26 09:22:50;;;;;;;9.65;5.65;;;9.50;99.90;;;;;;4814049;29;20061;-60
2022/12/26 09:25:22;;;;;;;11.00;4.70;;;9.50;99.90;;;;;;4809568;29;20348;-64
2022/12/26 09:27:48;;;;;;;10.27;4.30;;;9.50;99.90;;;;;;4813477;29;20045;-62
2022/12/26 09:30:14;;;;;;;7.45;3.80;;;9.60;99.90;;;;;;4814450;29;20345;-60
2022/12/26 09:32:40;;;;;;;8.43;3.90;;;9.60;99.90;;;;;;4812482;29;20113;-61
2022/12/26 09:35:07;;;;;;;6.40;3.92;;;9.60;99.90;;;;;;4814299;29;20126;-60
2022/12/26 09:37:33;;;;;;;6.88;3.95;;;9.70;99.90;;;;;;4812390;29;20081;-60
2022/12/26 09:39:59;;;;;;;7.45;3.47;;;9.60;99.90;;;;;;4814651;29;20046;-63
2022/12/26 09:42:49;;;;;;;8.27;3.40;;;9.60;99.90;;;;;;4812145;29;20039;-61
2022/12/26 09:45:17;;;;;;;7.72;3.20;;;9.70;99.90;;;;;;4819905;29;20550;-60
2022/12/26 09:48:10;;;;;;;9.60;3.25;;;9.60;99.90;;;;;;4820391;29;20038;-62
2022/12/26 09:50:38;;;;;;;11.95;3.75;;;9.70;99.90;;;;;;4813962;29;20050;-60
2022/12/26 09:53:06;;;;;;;15.48;3.35;;;9.60;99.90;;;;;;4819511;29;20053;-60
2022/12/26 09:55:55;;;;;;;15.13;4.05;;;9.30;99.90;;;;;;4799985;29;20056;-59
2022/12/26 09:58:34;;;;;;;18.20;4.25;;;9.00;99.90;;;;;;4815641;29;20360;-60
2022/12/26 10:01:08;;;;;;;18.65;4.32;;;8.70;99.90;;;;;;4800216;29;20066;-61
2022/12/26 10:03:41;;;;;;;16.25;3.70;;;8.60;99.90;;;;;;4801968;29;20050;-60
2022/12/26 10:06:13;;;;;;;13.98;3.92;;;8.50;99.90;;;;;;4819475;29;20446;-60
2022/12/26 10:09:16;;;;;;;13.80;3.30;;;8.30;99.90;;;;;;4816843;29;20069;-59
2022/12/26 10:12:01;;;;;;;13.38;3.20;;;8.10;99.90;;;;;;4819324;29;20113;-61
2022/12/26 10:14:35;;;;;;;13.52;3.22;;;8.10;99.90;;;;;;4815917;29;20049;-61
2022/12/26 10:17:15;;;;;;;10.30;2.80;;;8.00;99.90;;;;;;4809131;29;20191;-61
2022/12/26 10:19:47;;;;;;;12.02;2.60;;;7.90;99.90;;;;;;4804516;29;20046;-61
2022/12/26 10:22:22;;;;;;;12.02;2.80;;;7.80;99.90;;;;;;4806344;29;20327;-60
2022/12/26 10:24:49;;;;;;;13.13;2.90;;;7.80;99.90;;;;;;4801425;29;20078;-60
2022/12/26 10:27:16;;;;;;;9.43;2.55;;;7.90;99.90;;;;;;4806503;29;20100;-62
2022/12/26 10:29:46;;;;;;;10.57;2.47;;;7.90;99.90;;;;;;4812522;29;20065;-61
2022/12/26 10:32:17;;;;;;;13.88;2.28;;;7.90;99.90;;;;;;4797921;29;20085;-60
2022/12/26 10:34:46;;;;;;;9.57;3.05;;;8.00;99.90;;;;;;4812873;29;20039;-60
2022/12/26 10:37:23;;;;;;;9.35;2.40;;;8.10;99.90;;;;;;4812852;29;20047;-61
2022/12/26 10:40:07;;;;;;;12.27;2.97;;;8.30;99.90;;;;;;4810793;29;20337;-60
2022/12/26 10:42:41;;;;;;;9.40;2.25;;;8.30;99.90;;;;;;4812191;29;20127;-59
2022/12/26 10:45:28;;;;;;;10.10;2.15;;;8.30;99.90;;;;;;4813078;29;20088;-60
2022/12/26 10:47:54;;;;;;;12.27;2.35;;;8.30;99.90;;;;;;4812618;29;20057;-62
2022/12/26 10:50:26;;;;;;;12.70;2.95;;;8.20;99.90;;;;;;4811991;29;20039;-61
2022/12/26 10:52:51;;;;;;;9.57;2.40;;;8.20;99.90;;;;;;4821790;29;20042;-61
2022/12/26 10:55:26;;;;;;;10.32;2.60;;;8.10;99.90;;;;;;4822700;29;20379;-60
2022/12/26 10:57:53;;;;;;;11.63;2.22;;;8.10;99.90;;;;;;4806643;29;20086;-60
2022/12/26 11:00:22;;;;;;;13.00;2.90;;;8.10;99.90;;;;;;4823057;29;20042;-62
2022/12/26 11:03:14;;;;;;;11.25;2.72;;;8.00;99.90;;;;;;4822819;29;20043;-61
2022/12/26 11:05:49;;;;;;;11.20;2.65;;;8.00;99.90;;;;;;4823870;29;20065;-60
2022/12/26 11:08:19;;;;;;;10.60;2.40;;;8.00;99.90;;;;;;4826264;29;20035;-60
2022/12/26 11:11:06;;;;;;;11.90;2.63;;;8.00;99.90;;;;;;4826191;29;20046;-60
2022/12/26 11:13:37;;;;;;;12.82;2.40;;;8.10;99.90;;;;;;4824913;29;20417;-60
2022/12/26 11:16:04;;;;;;;14.25;2.45;;;8.00;99.90;;;;;;4826228;29;20054;-59
2022/12/26 11:18:36;;;;;;;10.68;2.42;;;8.00;99.90;;;;;;4809143;29;20038;-60
2022/12/26 11:21:13;;;;;;;12.05;2.72;;;8.00;99.90;;;;;;4823803;29;20400;-60
2022/12/26 11:23:38;;;;;;;10.27;2.75;;;7.90;99.90;;;;;;4825323;29;20046;-61
2022/12/26 11:26:17;;;;;;;11.30;2.50;;;7.90;99.90;;;;;;4825569;29;20050;-61
2022/12/26 11:28:43;;;;;;;11.95;2.47;;;7.90;99.90;;;;;;4824280;29;20049;-61
2022/12/26 11:31:26;;;;;;;12.60;2.50;;;7.90;99.90;;;;;;4825700;29;20372;-61
2022/12/26 11:33:52;;;;;;;10.98;2.70;;;7.90;99.90;;;;;;4824710;29;20057;-62
2022/12/26 11:36:22;;;;;;;13.05;2.58;;;7.90;99.90;;;;;;4825372;29;20038;-61
2022/12/26 11:38:58;;;;;;;12.65;2.88;;;7.80;99.90;;;;;;4825377;29;20046;-62
2022/12/26 11:41:38;;;;;;;10.45;3.22;;;7.80;99.90;;;;;;4809610;29;20054;-60
2022/12/26 11:44:09;;;;;;;14.30;2.83;;;7.80;99.90;;;;;;4823603;29;20046;-62
2022/12/26 11:46:43;;;;;;;11.07;2.72;;;7.80;99.90;;;;;;4825635;29;20057;-60
2022/12/26 11:49:19;;;;;;;13.40;3.15;;;7.80;99.90;;;;;;4825246;29;20046;-62
2022/12/26 11:51:47;;;;;;;11.35;2.55;;;7.80;99.90;;;;;;4827392;29;20121;-60
2022/12/26 11:54:19;;;;;;;11.15;2.75;;;7.90;99.90;;;;;;4824878;29;20073;-61
2022/12/26 11:56:44;;;;;;;11.40;2.67;;;7.90;99.90;;;;;;4817116;29;20124;-59
2022/12/26 11:59:28;;;;;;;13.15;3.20;;;7.90;99.90;;;;;;4823365;29;20073;-61
2022/12/26 12:02:29;;;;;;;13.25;3.42;;;7.90;99.90;;;;;;4820440;29;20186;-61
2022/12/26 12:05:05;;;;;;;9.98;3.13;;;7.90;99.90;;;;;;4822965;29;20042;-61
2022/12/26 12:08:02;;;;;;;12.02;2.95;;;7.80;99.90;;;;;;4823990;29;20050;-61
2022/12/26 12:10:46;;;;;;;10.85;2.75;;;7.90;99.90;;;;;;4792437;29;20042;-60
2022/12/26 12:13:24;;;;;;;13.68;2.70;;;7.80;99.90;;;;;;4824043;29;20038;-61
2022/12/26 12:16:17;;;;;;;11.55;2.70;;;7.80;99.90;;;;;;4807657;29;20042;-61
2022/12/26 12:18:53;;;;;;;13.85;2.90;;;7.70;99.90;;;;;;4806607;29;20096;-61
2022/12/26 12:21:38;;;;;;;13.52;2.50;;;7.70;99.90;;;;;;4823658;29;20060;-61
2022/12/26 12:24:38;;;;;;;12.60;2.67;;;7.70;99.90;;;;;;4823005;29;20145;-61
2022/12/26 12:27:40;;;;;;;14.60;2.97;;;7.70;99.90;;;;;;4823223;29;20085;-59
2022/12/26 12:30:18;;;;;;;12.18;3.90;;;7.80;99.90;;;;;;4824827;29;20046;-59
2022/12/26 12:32:58;;;;;;;12.25;3.30;;;7.80;99.90;;;;;;4822962;29;20057;-63
2022/12/26 12:36:00;;;;;;;14.63;2.95;;;7.80;99.90;;;;;;4822571;29;20118;-61
2022/12/26 12:38:40;;;;;;;10.88;2.90;;;7.80;99.90;;;;;;4823140;29;20070;-60
2022/12/26 12:41:27;;;;;;;11.20;3.00;;;7.80;99.90;;;;;;4824324;29;20052;-59
2022/12/26 12:44:23;;;;;;;16.35;3.65;;;7.70;99.90;;;;;;4821240;29;20086;-60
2022/12/26 12:47:13;;;;;;;13.13;2.95;;;7.80;99.90;;;;;;4778554;29;20125;-61
2022/12/26 12:50:12;;;;;;;12.93;3.63;;;7.70;99.90;;;;;;4822151;29;20353;-60
2022/12/26 12:53:05;;;;;;;13.70;2.72;;;7.70;99.90;;;;;;4823121;29;20357;-61
2022/12/26 12:56:07;;;;;;;13.95;3.03;;;7.60;99.90;;;;;;4806190;29;20368;-61
2022/12/26 12:59:19;;;;;;;12.45;2.80;;;7.50;99.90;;;;;;4818069;29;20130;-60
2022/12/26 13:01:50;;;;;;;17.25;3.20;;;7.40;99.90;;;;;;4823152;29;20572;-61
2022/12/26 13:04:33;;;;;;;13.95;3.28;;;7.40;99.90;;;;;;4825662;29;20109;-59
2022/12/26 13:07:10;;;;;;;13.68;3.05;;;7.30;99.90;;;;;;4822670;29;20038;-61
2022/12/26 13:09:56;;;;;;;17.40;3.33;;;7.30;99.90;;;;;;4826172;29;20038;-60
2022/12/26 13:12:25;;;;;;;15.20;3.53;;;7.20;99.90;;;;;;4823382;29;20387;-61
2022/12/26 13:14:59;;;;;;;10.73;2.80;;;7.20;99.90;;;;;;4822892;29;20127;-62
2022/12/26 13:17:31;;;;;;;19.60;3.83;;;7.20;99.90;;;;;;4806087;29;20427;-58
2022/12/26 13:20:05;;;;;;;12.25;2.90;;;7.20;99.90;;;;;;4785843;29;1099558;-61
2022/12/26 13:25:27;;;;;;;14.48;3.10;;;7.10;99.90;;;;;;4808911;29;20050;-62
2022/12/26 13:28:08;;;;;;;16.73;3.40;;;7.10;99.90;;;;;;4826540;29;20054;-62
2022/12/26 13:30:36;;;;;;;14.15;2.83;;;7.10;99.90;;;;;;4828089;29;20113;-61
2022/12/26 13:33:03;;;;;;;12.50;2.75;;;7.10;99.90;;;;;;4824420;29;20046;-59
2022/12/26 13:35:52;;;;;;;11.45;2.97;;;7.10;99.90;;;;;;4823027;29;20516;-58
2022/12/26 13:38:19;;;;;;;15.85;3.20;;;7.10;99.90;;;;;;4821683;29;20042;-60
2022/12/26 13:40:54;;;;;;;13.98;3.63;;;7.10;99.90;;;;;;4824579;29;20142;-60
2022/12/26 13:46:51;;;;;;;20.58;6.03;;;7.10;99.90;;;;;;4823542;29;20098;-62
2022/12/26 13:49:35;;;;;;;20.42;6.00;;;7.00;99.90;;;;;;4792772;29;20050;-60
2022/12/26 13:52:31;;;;;;;19.95;6.60;;;7.10;99.90;;;;;;4824473;29;20122;-60
2022/12/26 13:55:12;;;;;;;22.35;7.60;;;7.10;99.90;;;;;;4812017;29;20376;-62
2022/12/26 13:57:43;;;;;;;16.75;6.20;;;7.10;99.90;;;;;;4820040;29;20521;-62
2022/12/26 14:00:39;;;;;;;16.13;6.10;;;7.10;99.90;;;;;;4815280;29;20463;-60
2022/12/26 14:03:39;;;;;;;12.52;3.90;;;7.20;99.90;;;;;;4818397;29;20451;-60
2022/12/26 14:06:35;;;;;;;13.57;3.45;;;7.20;99.90;;;;;;4821823;29;20125;-59
2022/12/26 14:09:09;;;;;;;13.80;3.05;;;7.10;99.90;;;;;;4821553;29;20042;-60
2022/12/26 14:11:41;;;;;;;11.20;3.13;;;7.10;99.90;;;;;;4824783;29;20062;-59
2022/12/26 14:14:45;;;;;;;11.15;2.60;;;7.10;99.90;;;;;;4822775;29;20050;-58
2022/12/26 14:17:30;;;;;;;9.35;2.65;;;7.00;99.90;;;;;;4731414;30;20155;-63
2022/12/26 14:20:31;;;;;;;9.82;2.80;;;7.00;99.90;;;;;;4728894;30;20072;-61
2022/12/26 14:23:30;;;;;;;11.70;2.47;;;7.00;99.90;;;;;;4804272;29;20054;-61
2022/12/26 14:26:13;;;;;;;12.27;2.35;;;6.90;99.90;;;;;;4820264;29;20057;-60
2022/12/26 14:29:01;;;;;;;15.82;3.33;;;6.90;99.90;;;;;;4824503;29;20073;-61
2022/12/26 14:31:49;;;;;;;12.90;2.40;;;6.90;99.90;;;;;;4822849;29;20082;-61
2022/12/26 14:34:24;;;;;;;13.13;2.53;;;6.90;99.90;;;;;;4817635;29;20466;-61
2022/12/26 14:37:22;;;;;;;12.35;3.17;;;6.80;99.90;;;;;;4822381;29;20056;-58
2022/12/26 14:39:50;;;;;;;21.02;8.32;;;6.80;99.90;;;;;;4823620;29;20471;-60
2022/12/26 14:45:30;;;;;;;11.85;2.75;;;6.70;99.90;;;;;;4825735;29;20731;-60
2022/12/26 14:47:56;;;;;;;14.70;3.30;;;6.70;99.90;;;;;;4815648;29;20492;-61
2022/12/26 14:50:31;;;;;;;11.38;2.88;;;6.60;99.90;;;;;;4816936;29;20133;-62
2022/12/26 14:53:20;;;;;;;;;;;6.60;99.90;;;;;;4817597;29;20083;-60
2022/12/26 14:55:48;;;;;;;12.30;2.78;;;6.60;99.90;;;;;;4825086;29;19967;-62
2022/12/26 14:58:33;;;;;;;16.80;3.10;;;6.50;99.90;;;;;;4825072;29;20050;-60
2022/12/26 15:01:08;;;;;;;12.13;2.92;;;6.50;99.90;;;;;;4827143;29;20047;-59
2022/12/26 15:03:45;;;;;;;16.75;3.63;;;6.50;99.90;;;;;;4825466;29;20436;-59
2022/12/26 15:06:20;;;;;;;16.77;3.22;;;6.60;99.90;;;;;;4825987;29;20046;-59
2022/12/26 15:09:06;;;;;;;12.10;3.10;;;6.50;99.90;;;;;;4825957;29;20042;-61
2022/12/26 15:12:15;;;;;;;14.55;3.05;;;6.40;99.90;;;;;;4826091;29;20488;-60
2022/12/26 15:15:17;;;;;;;13.13;3.15;;;6.40;99.90;;;;;;4825579;29;20046;-61
2022/12/26 15:18:08;;;;;;;14.65;3.67;;;6.40;99.90;;;;;;4821672;29;20437;-60
2022/12/26 15:20:49;;;;;;;13.07;3.05;;;6.40;99.90;;;;;;4825838;29;20479;-60
2022/12/26 15:23:33;;;;;;;17.35;4.28;;;6.30;99.90;;;;;;4809030;29;20130;-62
2022/12/26 15:26:24;;;;;;;18.42;4.22;;;6.30;99.90;;;;;;4807398;29;20190;-61
2022/12/26 15:29:20;;;;;;;17.15;4.70;;;6.30;99.90;;;;;;4808615;29;20038;-61